Terminal Aerodrome Forecast
Issued by NWS Upton, NY

Home | Current Version | Previous Version | Text Only | Print | Product List | Glossary On
Versions: 1 2 3 4 5 6 7 8 9 10 11 12 13 14 15 16 17 18 19 20 21 22 23 24 25 26 27
000
FTUS41 KOKX 041437 AAA
TAFEWR
TAF AMD
KEWR 041437Z 0415/0518 07007KT P6SM FEW035 OVC080
      TEMPO 0415/0418 -RA
     FM041800 05008KT P6SM SCT035 OVC060
      TEMPO 0418/0420 -RA
     FM042300 03004KT P6SM BKN060
     FM050500 VRB04KT P6SM FEW060
     FM051300 28007KT P6SM FEW060=

USA.gov is the U.S. government's official web portal to all federal, state and local government web resources and services.